sensor_id;sensor_type;location;lat;lon;timestamp;pressure;altitude;pressure_sealevel;temperature;humidity
63500;BME280;49654;51.142;14.924;2022-11-15T00:02:24;99220.88;;;9.02;77.85
63500;BME280;49654;51.142;14.924;2022-11-15T00:04:51;99231.06;;;9.03;77.66
63500;BME280;49654;51.142;14.924;2022-11-15T00:07:18;99233.34;;;8.98;78.35
63500;BME280;49654;51.142;14.924;2022-11-15T00:09:46;99227.03;;;9.01;77.80
63500;BME280;49654;51.142;14.924;2022-11-15T00:12:13;99228.47;;;9.03;77.81
63500;BME280;49654;51.142;14.924;2022-11-15T00:14:40;99232.69;;;9.05;77.69
63500;BME280;49654;51.142;14.924;2022-11-15T00:17:08;99219.09;;;9.02;77.46
63500;BME280;49654;51.142;14.924;2022-11-15T00:19:35;99233.50;;;8.89;77.62
63500;BME280;49654;51.142;14.924;2022-11-15T00:22:02;99201.31;;;8.75;77.91
63500;BME280;49654;51.142;14.924;2022-11-15T00:24:29;99202.09;;;8.75;78.37
63500;BME280;49654;51.142;14.924;2022-11-15T00:26:57;99234.50;;;8.96;78.09
63500;BME280;49654;51.142;14.924;2022-11-15T00:29:24;99234.66;;;8.78;77.76
63500;BME280;49654;51.142;14.924;2022-11-15T00:31:52;99237.06;;;8.71;77.95
63500;BME280;49654;51.142;14.924;2022-11-15T00:34:19;99229.44;;;8.62;78.97
63500;BME280;49654;51.142;14.924;2022-11-15T00:36:46;99228.00;;;8.75;79.07
63500;BME280;49654;51.142;14.924;2022-11-15T00:39:13;99158.50;;;8.22;79.24
63500;BME280;49654;51.142;14.924;2022-11-15T00:41:40;99222.00;;;8.67;79.49
63500;BME280;49654;51.142;14.924;2022-11-15T00:44:08;99218.44;;;8.76;79.55
63500;BME280;49654;51.142;14.924;2022-11-15T00:46:35;99208.91;;;8.76;79.38
63500;BME280;49654;51.142;14.924;2022-11-15T00:49:02;99140.31;;;8.40;79.00
63500;BME280;49654;51.142;14.924;2022-11-15T00:51:29;99210.03;;;8.82;78.97
63500;BME280;49654;51.142;14.924;2022-11-15T00:53:56;99203.09;;;8.91;78.46
63500;BME280;49654;51.142;14.924;2022-11-15T00:56:23;99198.84;;;8.90;78.69
63500;BME280;49654;51.142;14.924;2022-11-15T00:58:50;99196.28;;;8.90;78.76
63500;BME280;49654;51.142;14.924;2022-11-15T01:01:19;99198.53;;;9.01;78.10
63500;BME280;49654;51.142;14.924;2022-11-15T01:03:46;99204.22;;;9.05;78.07
63500;BME280;49654;51.142;14.924;2022-11-15T01:06:13;99081.06;;;8.20;77.86
63500;BME280;49654;51.142;14.924;2022-11-15T01:08:40;99115.69;;;8.52;77.65
63500;BME280;49654;51.142;14.924;2022-11-15T01:11:09;99186.56;;;8.92;77.19
63500;BME280;49654;51.142;14.924;2022-11-15T01:13:38;99213.75;;;8.96;77.76
63500;BME280;49654;51.142;14.924;2022-11-15T01:16:07;99215.88;;;8.92;77.80
63500;BME280;49654;51.142;14.924;2022-11-15T01:18:36;99223.47;;;8.94;77.59
63500;BME280;49654;51.142;14.924;2022-11-15T01:21:07;99209.38;;;8.96;77.59
63500;BME280;49654;51.142;14.924;2022-11-15T01:23:35;99211.00;;;8.89;77.84
63500;BME280;49654;51.142;14.924;2022-11-15T01:26:03;99208.91;;;8.85;77.73
63500;BME280;49654;51.142;14.924;2022-11-15T01:28:31;99209.38;;;8.80;77.88
63500;BME280;49654;51.142;14.924;2022-11-15T01:30:58;99201.00;;;8.78;77.64
63500;BME280;49654;51.142;14.924;2022-11-15T01:33:26;99194.50;;;8.74;77.23
63500;BME280;49654;51.142;14.924;2022-11-15T01:35:54;99197.22;;;8.64;77.59
63500;BME280;49654;51.142;14.924;2022-11-15T01:38:22;99174.41;;;8.51;77.06
63500;BME280;49654;51.142;14.924;2022-11-15T01:40:49;99185.75;;;8.59;78.12
63500;BME280;49654;51.142;14.924;2022-11-15T01:43:21;99180.56;;;8.50;77.61
63500;BME280;49654;51.142;14.924;2022-11-15T01:45:51;99183.31;;;8.41;78.04
63500;BME280;49654;51.142;14.924;2022-11-15T01:48:20;99176.63;;;8.30;77.49
63500;BME280;49654;51.142;14.924;2022-11-15T01:50:48;99165.94;;;8.25;78.71
63500;BME280;49654;51.142;14.924;2022-11-15T01:53:19;99171.88;;;8.09;78.11
63500;BME280;49654;51.142;14.924;2022-11-15T01:55:48;99024.53;;;6.92;78.26
63500;BME280;49654;51.142;14.924;2022-11-15T01:58:15;99173.75;;;7.83;80.32
63500;BME280;49654;51.142;14.924;2022-11-15T02:00:42;99169.28;;;7.93;80.61
63500;BME280;49654;51.142;14.924;2022-11-15T02:03:09;99030.91;;;7.14;80.36
63500;BME280;49654;51.142;14.924;2022-11-15T02:05:37;99146.28;;;7.82;79.68
63500;BME280;49654;51.142;14.924;2022-11-15T02:08:05;99165.75;;;8.02;81.15
63500;BME280;49654;51.142;14.924;2022-11-15T02:10:34;99156.75;;;8.22;81.16
63500;BME280;49654;51.142;14.924;2022-11-15T02:13:01;99173.47;;;8.44;79.71
63500;BME280;49654;51.142;14.924;2022-11-15T02:15:33;99173.94;;;8.48;78.64
63500;BME280;49654;51.142;14.924;2022-11-15T02:18:10;99159.38;;;8.39;78.69
63500;BME280;49654;51.142;14.924;2022-11-15T02:20:47;99164.22;;;8.42;78.72
63500;BME280;49654;51.142;14.924;2022-11-15T02:23:52;99163.06;;;8.28;79.24
63500;BME280;49654;51.142;14.924;2022-11-15T02:29:27;99132.00;;;8.28;79.31
63500;BME280;49654;51.142;14.924;2022-11-15T02:32:05;99150.13;;;8.36;79.36
63500;BME280;49654;51.142;14.924;2022-11-15T02:34:41;99140.91;;;8.34;79.36
63500;BME280;49654;51.142;14.924;2022-11-15T02:37:16;99144.28;;;8.34;79.24
63500;BME280;49654;51.142;14.924;2022-11-15T02:39:49;99143.47;;;8.25;79.50
63500;BME280;49654;51.142;14.924;2022-11-15T02:42:20;99153.00;;;8.25;79.68
63500;BME280;49654;51.142;14.924;2022-11-15T02:45:09;99150.41;;;8.17;79.73
63500;BME280;49654;51.142;14.924;2022-11-15T02:47:43;99141.69;;;8.26;79.78
63500;BME280;49654;51.142;14.924;2022-11-15T02:50:13;99138.16;;;8.19;79.79
63500;BME280;49654;51.142;14.924;2022-11-15T02:52:44;99082.34;;;8.00;79.84
63500;BME280;49654;51.142;14.924;2022-11-15T02:55:29;99120.19;;;8.34;79.71
63500;BME280;49654;51.142;14.924;2022-11-15T02:58:07;99121.16;;;8.24;79.82
63500;BME280;49654;51.142;14.924;2022-11-15T03:00:41;99105.47;;;8.34;79.33
63500;BME280;49654;51.142;14.924;2022-11-15T03:03:36;99099.38;;;8.43;79.67
63500;BME280;49654;51.142;14.924;2022-11-15T03:06:15;98971.97;;;7.68;78.98
63500;BME280;49654;51.142;14.924;2022-11-15T03:08:53;99097.25;;;8.39;79.94
63500;BME280;49654;51.142;14.924;2022-11-15T03:11:24;99097.13;;;8.57;79.26
63500;BME280;49654;51.142;14.924;2022-11-15T03:13:56;99094.66;;;8.63;78.87
63500;BME280;49654;51.142;14.924;2022-11-15T03:16:27;99086.59;;;8.66;78.41
63500;BME280;49654;51.142;14.924;2022-11-15T03:19:04;99089.31;;;8.65;78.47
63500;BME280;49654;51.142;14.924;2022-11-15T03:21:34;99097.91;;;8.65;78.20
63500;BME280;49654;51.142;14.924;2022-11-15T03:24:05;99098.56;;;8.67;78.19
63500;BME280;49654;51.142;14.924;2022-11-15T03:26:35;99100.66;;;8.64;78.33
63500;BME280;49654;51.142;14.924;2022-11-15T03:29:07;99090.63;;;8.61;78.08
63500;BME280;49654;51.142;14.924;2022-11-15T03:31:38;99013.16;;;7.86;78.63
63500;BME280;49654;51.142;14.924;2022-11-15T03:34:22;99095.66;;;8.38;79.11
63500;BME280;49654;51.142;14.924;2022-11-15T03:36:52;99090.16;;;8.41;79.08
63500;BME280;49654;51.142;14.924;2022-11-15T03:39:20;99089.47;;;8.31;79.02
63500;BME280;49654;51.142;14.924;2022-11-15T03:41:51;99081.72;;;8.22;79.85
63500;BME280;49654;51.142;14.924;2022-11-15T03:44:35;99085.44;;;8.20;79.96
63500;BME280;49654;51.142;14.924;2022-11-15T03:47:07;99079.13;;;8.22;80.11
63500;BME280;49654;51.142;14.924;2022-11-15T03:49:41;99081.88;;;8.29;79.61
63500;BME280;49654;51.142;14.924;2022-11-15T03:52:10;99063.59;;;8.06;79.93
63500;BME280;49654;51.142;14.924;2022-11-15T03:54:47;99087.53;;;8.24;80.05
63500;BME280;49654;51.142;14.924;2022-11-15T03:57:15;99074.59;;;8.24;80.28
63500;BME280;49654;51.142;14.924;2022-11-15T03:59:42;99078.00;;;8.33;79.66
63500;BME280;49654;51.142;14.924;2022-11-15T04:02:09;99068.00;;;8.38;79.24
63500;BME280;49654;51.142;14.924;2022-11-15T04:04:37;98939.81;;;7.46;79.75
63500;BME280;49654;51.142;14.924;2022-11-15T04:07:04;99064.28;;;8.41;79.31
63500;BME280;49654;51.142;14.924;2022-11-15T04:09:31;98951.91;;;7.70;79.05
63500;BME280;49654;51.142;14.924;2022-11-15T04:11:58;99041.28;;;8.29;79.17
63500;BME280;49654;51.142;14.924;2022-11-15T04:14:25;99065.56;;;8.45;78.89
63500;BME280;49654;51.142;14.924;2022-11-15T04:16:52;99076.72;;;8.45;79.01
63500;BME280;49654;51.142;14.924;2022-11-15T04:19:19;99078.19;;;8.48;78.86
63500;BME280;49654;51.142;14.924;2022-11-15T04:22:07;99068.78;;;8.47;78.76
63500;BME280;49654;51.142;14.924;2022-11-15T04:24:52;99075.63;;;8.48;78.61
63500;BME280;49654;51.142;14.924;2022-11-15T04:27:19;99076.41;;;8.40;78.56
63500;BME280;49654;51.142;14.924;2022-11-15T04:29:46;99083.34;;;8.32;78.76
63500;BME280;49654;51.142;14.924;2022-11-15T04:32:13;99075.56;;;8.23;79.34
63500;BME280;49654;51.142;14.924;2022-11-15T04:34:40;99084.28;;;8.31;79.42
63500;BME280;49654;51.142;14.924;2022-11-15T04:37:08;99063.63;;;8.14;79.28
63500;BME280;49654;51.142;14.924;2022-11-15T04:39:38;99069.91;;;8.12;79.24
63500;BME280;49654;51.142;14.924;2022-11-15T04:42:05;99070.41;;;8.15;79.56
63500;BME280;49654;51.142;14.924;2022-11-15T04:44:32;99071.38;;;8.06;79.75
63500;BME280;49654;51.142;14.924;2022-11-15T04:47:00;99071.69;;;8.11;79.71
63500;BME280;49654;51.142;14.924;2022-11-15T04:49:27;99072.50;;;8.12;80.14
63500;BME280;49654;51.142;14.924;2022-11-15T04:51:54;99029.31;;;8.04;79.30
63500;BME280;49654;51.142;14.924;2022-11-15T04:54:22;99052.44;;;7.97;79.65
63500;BME280;49654;51.142;14.924;2022-11-15T04:56:49;99079.28;;;8.13;79.47
63500;BME280;49654;51.142;14.924;2022-11-15T04:59:16;98947.81;;;7.26;79.97
63500;BME280;49654;51.142;14.924;2022-11-15T05:01:43;99079.44;;;8.11;79.54
63500;BME280;49654;51.142;14.924;2022-11-15T05:04:10;99081.84;;;7.96;79.22
63500;BME280;49654;51.142;14.924;2022-11-15T05:06:47;99005.53;;;7.51;80.30
63500;BME280;49654;51.142;14.924;2022-11-15T05:09:14;99069.75;;;7.97;79.81
63500;BME280;49654;51.142;14.924;2022-11-15T05:11:43;99066.81;;;7.92;80.04
63500;BME280;49654;51.142;14.924;2022-11-15T05:14:10;99053.22;;;7.82;80.14
63500;BME280;49654;51.142;14.924;2022-11-15T05:16:38;99064.88;;;7.86;80.32
63500;BME280;49654;51.142;14.924;2022-11-15T05:19:05;99057.91;;;7.86;80.14
63500;BME280;49654;51.142;14.924;2022-11-15T05:21:33;99055.63;;;7.83;80.85
63500;BME280;49654;51.142;14.924;2022-11-15T05:24:00;99058.09;;;7.85;80.69
63500;BME280;49654;51.142;14.924;2022-11-15T05:26:28;99053.03;;;7.75;80.72
63500;BME280;49654;51.142;14.924;2022-11-15T05:28:58;99022.13;;;7.49;81.18
63500;BME280;49654;51.142;14.924;2022-11-15T05:31:26;99057.41;;;7.74;81.07
63500;BME280;49654;51.142;14.924;2022-11-15T05:33:55;99056.13;;;7.78;80.91
63500;BME280;49654;51.142;14.924;2022-11-15T05:36:29;99049.50;;;7.68;81.68
63500;BME280;49654;51.142;14.924;2022-11-15T05:38:58;99059.50;;;7.79;80.86
63500;BME280;49654;51.142;14.924;2022-11-15T05:41:28;98962.03;;;7.22;80.70
63500;BME280;49654;51.142;14.924;2022-11-15T05:44:00;99048.56;;;7.85;80.91
63500;BME280;49654;51.142;14.924;2022-11-15T05:46:28;99030.44;;;7.77;80.61
63500;BME280;49654;51.142;14.924;2022-11-15T05:48:56;99020.59;;;7.89;80.28
63500;BME280;49654;51.142;14.924;2022-11-15T05:51:24;99046.00;;;8.10;79.61
63500;BME280;49654;51.142;14.924;2022-11-15T05:53:52;99042.91;;;7.98;79.77
63500;BME280;49654;51.142;14.924;2022-11-15T05:56:20;99047.59;;;7.94;80.03
63500;BME280;49654;51.142;14.924;2022-11-15T05:58:47;98981.47;;;7.51;80.40
63500;BME280;49654;51.142;14.924;2022-11-15T06:01:15;98997.94;;;7.66;80.49
63500;BME280;49654;51.142;14.924;2022-11-15T06:03:42;98940.41;;;7.40;80.26
63500;BME280;49654;51.142;14.924;2022-11-15T06:06:10;99049.69;;;8.07;79.88
63500;BME280;49654;51.142;14.924;2022-11-15T06:08:37;98892.44;;;7.05;80.03
63500;BME280;49654;51.142;14.924;2022-11-15T06:11:04;99043.56;;;8.08;80.10
63500;BME280;49654;51.142;14.924;2022-11-15T06:13:32;99049.41;;;8.18;79.83
63500;BME280;49654;51.142;14.924;2022-11-15T06:15:59;99047.75;;;8.25;79.23
63500;BME280;49654;51.142;14.924;2022-11-15T06:18:27;98991.03;;;7.91;78.80
63500;BME280;49654;51.142;14.924;2022-11-15T06:20:58;99028.03;;;8.16;78.63
63500;BME280;49654;51.142;14.924;2022-11-15T06:23:25;99010.41;;;8.12;79.00
63500;BME280;49654;51.142;14.924;2022-11-15T06:25:52;99035.47;;;8.36;78.35
63500;BME280;49654;51.142;14.924;2022-11-15T06:28:19;99043.25;;;8.36;78.46
63500;BME280;49654;51.142;14.924;2022-11-15T06:30:46;99030.97;;;8.38;78.23
63500;BME280;49654;51.142;14.924;2022-11-15T06:33:13;99032.88;;;8.36;78.24
63500;BME280;49654;51.142;14.924;2022-11-15T06:35:42;98970.19;;;8.01;78.17
63500;BME280;49654;51.142;14.924;2022-11-15T06:38:10;99027.84;;;8.34;78.12
63500;BME280;49654;51.142;14.924;2022-11-15T06:40:38;99042.94;;;8.39;78.02
63500;BME280;49654;51.142;14.924;2022-11-15T06:43:05;99039.53;;;8.38;77.85
63500;BME280;49654;51.142;14.924;2022-11-15T06:45:33;98915.41;;;7.73;77.54
63500;BME280;49654;51.142;14.924;2022-11-15T06:48:00;99043.41;;;8.50;77.65
63500;BME280;49654;51.142;14.924;2022-11-15T06:50:27;99045.50;;;8.47;77.64
63500;BME280;49654;51.142;14.924;2022-11-15T06:53:00;99013.19;;;8.26;77.41
63500;BME280;49654;51.142;14.924;2022-11-15T06:55:27;99001.19;;;8.17;77.33
63500;BME280;49654;51.142;14.924;2022-11-15T06:57:54;99073.34;;;8.61;76.91
63500;BME280;49654;51.142;14.924;2022-11-15T07:00:22;99061.22;;;8.45;77.40
63500;BME280;49654;51.142;14.924;2022-11-15T07:02:49;99083.34;;;8.64;77.04
63500;BME280;49654;51.142;14.924;2022-11-15T07:05:16;99074.94;;;8.54;77.25
63500;BME280;49654;51.142;14.924;2022-11-15T07:07:50;98985.72;;;7.93;77.45
63500;BME280;49654;51.142;14.924;2022-11-15T07:10:19;99081.91;;;8.53;77.60
63500;BME280;49654;51.142;14.924;2022-11-15T07:12:47;99077.84;;;8.51;77.08
63500;BME280;49654;51.142;14.924;2022-11-15T07:15:14;99079.63;;;8.50;77.50
63500;BME280;49654;51.142;14.924;2022-11-15T07:17:41;99070.75;;;8.53;77.24
63500;BME280;49654;51.142;14.924;2022-11-15T07:20:09;99074.28;;;8.60;77.37
63500;BME280;49654;51.142;14.924;2022-11-15T07:22:36;99066.84;;;8.65;77.01
63500;BME280;49654;51.142;14.924;2022-11-15T07:25:03;99062.78;;;8.71;76.80
63500;BME280;49654;51.142;14.924;2022-11-15T07:27:32;99075.56;;;8.81;76.62
63500;BME280;49654;51.142;14.924;2022-11-15T07:29:59;98918.31;;;7.86;76.38
63500;BME280;49654;51.142;14.924;2022-11-15T07:32:26;99068.44;;;8.83;76.60
63500;BME280;49654;51.142;14.924;2022-11-15T07:34:54;99067.78;;;8.81;76.68
63500;BME280;49654;51.142;14.924;2022-11-15T07:37:21;99061.91;;;8.95;76.05
63500;BME280;49654;51.142;14.924;2022-11-15T07:39:48;99066.91;;;9.05;75.73
63500;BME280;49654;51.142;14.924;2022-11-15T07:42:15;99059.44;;;9.18;75.05
63500;BME280;49654;51.142;14.924;2022-11-15T07:44:57;99068.31;;;9.15;75.42
63500;BME280;49654;51.142;14.924;2022-11-15T07:47:24;99068.19;;;9.17;75.27
63500;BME280;49654;51.142;14.924;2022-11-15T07:49:51;99065.44;;;9.10;75.67
63500;BME280;49654;51.142;14.924;2022-11-15T07:52:18;99062.03;;;9.18;75.58
63500;BME280;49654;51.142;14.924;2022-11-15T07:54:45;99058.59;;;9.25;75.05
63500;BME280;49654;51.142;14.924;2022-11-15T07:57:12;99050.81;;;9.25;75.04
63500;BME280;49654;51.142;14.924;2022-11-15T07:59:39;99046.03;;;9.37;74.80
63500;BME280;49654;51.142;14.924;2022-11-15T08:02:09;99050.34;;;9.53;74.67
63500;BME280;49654;51.142;14.924;2022-11-15T08:04:36;99034.94;;;9.60;73.78
63500;BME280;49654;51.142;14.924;2022-11-15T08:07:03;98966.03;;;9.65;72.53
63500;BME280;49654;51.142;14.924;2022-11-15T08:09:30;99039.81;;;10.61;70.50
63500;BME280;49654;51.142;14.924;2022-11-15T08:11:57;99039.84;;;11.20;68.51
63500;BME280;49654;51.142;14.924;2022-11-15T08:14:24;99046.06;;;11.41;66.55
63500;BME280;49654;51.142;14.924;2022-11-15T08:16:51;99029.28;;;11.58;65.46
63500;BME280;49654;51.142;14.924;2022-11-15T08:19:19;99040.41;;;11.88;63.88
63500;BME280;49654;51.142;14.924;2022-11-15T08:21:46;99031.69;;;11.81;63.90
63500;BME280;49654;51.142;14.924;2022-11-15T08:24:14;99024.59;;;11.90;63.89
63500;BME280;49654;51.142;14.924;2022-11-15T08:26:41;99037.69;;;11.82;64.11
63500;BME280;49654;51.142;14.924;2022-11-15T08:29:08;98941.44;;;11.17;63.33
63500;BME280;49654;51.142;14.924;2022-11-15T08:31:35;98966.72;;;11.45;64.32
63500;BME280;49654;51.142;14.924;2022-11-15T08:34:03;99028.19;;;11.89;63.40
63500;BME280;49654;51.142;14.924;2022-11-15T08:36:32;99039.25;;;12.12;62.94
63500;BME280;49654;51.142;14.924;2022-11-15T08:38:59;99037.72;;;12.24;62.76
63500;BME280;49654;51.142;14.924;2022-11-15T08:41:29;99029.66;;;11.76;63.58
63500;BME280;49654;51.142;14.924;2022-11-15T08:43:57;99040.16;;;11.68;64.71
63500;BME280;49654;51.142;14.924;2022-11-15T08:46:24;99040.34;;;11.45;65.50
63500;BME280;49654;51.142;14.924;2022-11-15T08:48:51;99040.88;;;11.41;66.55
63500;BME280;49654;51.142;14.924;2022-11-15T08:51:18;99000.16;;;11.12;66.65
63500;BME280;49654;51.142;14.924;2022-11-15T08:53:46;99030.31;;;11.64;66.20
63500;BME280;49654;51.142;14.924;2022-11-15T08:56:14;99035.66;;;11.77;65.84
63500;BME280;49654;51.142;14.924;2022-11-15T08:58:41;99026.88;;;11.78;65.84
63500;BME280;49654;51.142;14.924;2022-11-15T09:01:15;99021.97;;;11.68;66.02
63500;BME280;49654;51.142;14.924;2022-11-15T09:03:43;99012.19;;;11.49;66.48
63500;BME280;49654;51.142;14.924;2022-11-15T09:06:10;99024.19;;;11.50;66.17
63500;BME280;49654;51.142;14.924;2022-11-15T09:08:37;99015.31;;;11.44;67.01
63500;BME280;49654;51.142;14.924;2022-11-15T09:11:06;99001.19;;;11.32;66.71
63500;BME280;49654;51.142;14.924;2022-11-15T09:13:34;99003.13;;;11.45;66.26
63500;BME280;49654;51.142;14.924;2022-11-15T09:16:03;99025.69;;;11.81;66.58
63500;BME280;49654;51.142;14.924;2022-11-15T09:18:31;98997.75;;;11.68;65.24
63500;BME280;49654;51.142;14.924;2022-11-15T09:20:59;99029.41;;;11.71;66.11
63500;BME280;49654;51.142;14.924;2022-11-15T09:23:27;99027.84;;;11.77;65.52
63500;BME280;49654;51.142;14.924;2022-11-15T09:25:58;99023.66;;;11.76;65.56
63500;BME280;49654;51.142;14.924;2022-11-15T09:28:27;99025.38;;;11.69;66.04
63500;BME280;49654;51.142;14.924;2022-11-15T09:30:56;99022.31;;;12.01;65.64
63500;BME280;49654;51.142;14.924;2022-11-15T09:33:24;99028.81;;;12.12;64.73
63500;BME280;49654;51.142;14.924;2022-11-15T09:35:52;99023.91;;;12.24;64.77
63500;BME280;49654;51.142;14.924;2022-11-15T09:38:19;99014.28;;;12.24;65.39
63500;BME280;49654;51.142;14.924;2022-11-15T09:40:49;99020.94;;;12.06;64.33
63500;BME280;49654;51.142;14.924;2022-11-15T09:43:31;98955.31;;;12.10;65.23
63500;BME280;49654;51.142;14.924;2022-11-15T09:46:10;99003.06;;;12.52;63.85
63500;BME280;49654;51.142;14.924;2022-11-15T09:48:49;98996.78;;;12.74;63.74
63500;BME280;49654;51.142;14.924;2022-11-15T09:51:26;98994.06;;;12.54;63.21
63500;BME280;49654;51.142;14.924;2022-11-15T09:54:03;98995.91;;;12.61;64.27
63500;BME280;49654;51.142;14.924;2022-11-15T09:56:32;98998.88;;;12.51;63.99
63500;BME280;49654;51.142;14.924;2022-11-15T09:59:15;98994.59;;;12.43;65.62
63500;BME280;49654;51.142;14.924;2022-11-15T10:01:50;98981.06;;;12.26;64.80
63500;BME280;49654;51.142;14.924;2022-11-15T10:04:21;98980.56;;;12.38;63.06
63500;BME280;49654;51.142;14.924;2022-11-15T10:06:53;98988.00;;;12.19;63.73
63500;BME280;49654;51.142;14.924;2022-11-15T10:09:24;98977.69;;;12.33;65.17
63500;BME280;49654;51.142;14.924;2022-11-15T10:11:53;98959.22;;;12.21;65.04
63500;BME280;49654;51.142;14.924;2022-11-15T10:14:24;98979.78;;;12.44;64.96
63500;BME280;49654;51.142;14.924;2022-11-15T10:17:02;98969.78;;;12.47;63.68
63500;BME280;49654;51.142;14.924;2022-11-15T10:19:38;98979.41;;;12.47;63.81
63500;BME280;49654;51.142;14.924;2022-11-15T10:22:19;98984.00;;;12.17;65.09
63500;BME280;49654;51.142;14.924;2022-11-15T10:24:50;98971.75;;;12.45;64.97
63500;BME280;49654;51.142;14.924;2022-11-15T10:27:19;98962.44;;;12.58;64.05
63500;BME280;49654;51.142;14.924;2022-11-15T10:29:49;98967.84;;;12.56;64.29
63500;BME280;49654;51.142;14.924;2022-11-15T10:32:18;98962.78;;;12.48;64.96
63500;BME280;49654;51.142;14.924;2022-11-15T10:34:46;98966.44;;;12.25;64.47
63500;BME280;49654;51.142;14.924;2022-11-15T10:37:14;98967.41;;;12.24;65.08
63500;BME280;49654;51.142;14.924;2022-11-15T10:39:41;98957.78;;;12.18;65.22
63500;BME280;49654;51.142;14.924;2022-11-15T10:42:16;98924.00;;;12.25;65.39
63500;BME280;49654;51.142;14.924;2022-11-15T10:44:44;98952.28;;;12.69;64.61
63500;BME280;49654;51.142;14.924;2022-11-15T10:47:27;98935.16;;;12.95;63.70
63500;BME280;49654;51.142;14.924;2022-11-15T10:50:02;98939.97;;;12.98;63.53
63500;BME280;49654;51.142;14.924;2022-11-15T10:52:31;98934.28;;;13.36;62.33
63500;BME280;49654;51.142;14.924;2022-11-15T10:55:03;98926.50;;;13.49;60.77
63500;BME280;49654;51.142;14.924;2022-11-15T10:57:35;98915.06;;;13.50;60.27
63500;BME280;49654;51.142;14.924;2022-11-15T11:00:05;98898.19;;;13.72;59.70
63500;BME280;49654;51.142;14.924;2022-11-15T11:02:36;98922.84;;;14.23;58.71
63500;BME280;49654;51.142;14.924;2022-11-15T11:05:05;98928.72;;;13.72;59.23
63500;BME280;49654;51.142;14.924;2022-11-15T11:07:34;98926.88;;;13.52;60.39
63500;BME280;49654;51.142;14.924;2022-11-15T11:10:05;98921.47;;;13.41;60.19
63500;BME280;49654;51.142;14.924;2022-11-15T11:12:34;98920.84;;;13.39;60.25
63500;BME280;49654;51.142;14.924;2022-11-15T11:15:09;98914.66;;;13.66;60.42
63500;BME280;49654;51.142;14.924;2022-11-15T11:17:54;98908.81;;;13.91;60.04
63500;BME280;49654;51.142;14.924;2022-11-15T11:20:30;98908.22;;;13.82;59.12
63500;BME280;49654;51.142;14.924;2022-11-15T11:23:17;98904.03;;;13.81;59.11
63500;BME280;49654;51.142;14.924;2022-11-15T11:25:51;98909.66;;;13.71;59.70
63500;BME280;49654;51.142;14.924;2022-11-15T11:28:34;98908.63;;;13.66;60.08
63500;BME280;49654;51.142;14.924;2022-11-15T11:31:14;98902.63;;;13.59;59.83
63500;BME280;49654;51.142;14.924;2022-11-15T11:33:51;98908.84;;;13.51;60.12
63500;BME280;49654;51.142;14.924;2022-11-15T11:36:27;98891.97;;;13.80;59.91
63500;BME280;49654;51.142;14.924;2022-11-15T11:39:11;98901.63;;;13.66;60.53
63500;BME280;49654;51.142;14.924;2022-11-15T11:41:53;98874.31;;;13.42;60.14
63500;BME280;49654;51.142;14.924;2022-11-15T11:44:34;98864.00;;;13.14;61.16
63500;BME280;49654;51.142;14.924;2022-11-15T11:47:09;98874.50;;;13.34;60.98
63500;BME280;49654;51.142;14.924;2022-11-15T11:49:42;98857.66;;;13.37;60.33
63500;BME280;49654;51.142;14.924;2022-11-15T11:52:15;98866.69;;;13.41;61.79
63500;BME280;49654;51.142;14.924;2022-11-15T11:54:52;98875.09;;;13.30;61.98
63500;BME280;49654;51.142;14.924;2022-11-15T11:57:28;98856.97;;;13.08;61.97
63500;BME280;49654;51.142;14.924;2022-11-15T12:00:02;98830.69;;;12.90;62.97
63500;BME280;49654;51.142;14.924;2022-11-15T12:02:33;98854.91;;;12.77;62.71
63500;BME280;49654;51.142;14.924;2022-11-15T12:05:10;98861.72;;;12.85;63.14
63500;BME280;49654;51.142;14.924;2022-11-15T12:07:39;98863.94;;;12.88;62.44
63500;BME280;49654;51.142;14.924;2022-11-15T12:10:16;98761.13;;;12.16;62.43
63500;BME280;49654;51.142;14.924;2022-11-15T12:12:54;98859.78;;;12.93;62.51
63500;BME280;49654;51.142;14.924;2022-11-15T12:15:24;98845.97;;;13.13;61.55
63500;BME280;49654;51.142;14.924;2022-11-15T12:17:54;98843.03;;;13.49;61.26
63500;BME280;49654;51.142;14.924;2022-11-15T12:20:25;98812.09;;;13.39;59.74
63500;BME280;49654;51.142;14.924;2022-11-15T12:22:56;98848.03;;;13.50;59.58
63500;BME280;49654;51.142;14.924;2022-11-15T12:25:29;98850.66;;;13.70;60.37
63500;BME280;49654;51.142;14.924;2022-11-15T12:28:02;98840.56;;;13.87;58.87
63500;BME280;49654;51.142;14.924;2022-11-15T12:30:42;98841.38;;;13.88;58.28
63500;BME280;49654;51.142;14.924;2022-11-15T12:33:30;98849.47;;;14.44;57.49
63500;BME280;49654;51.142;14.924;2022-11-15T12:36:00;98842.38;;;13.87;57.44
63500;BME280;49654;51.142;14.924;2022-11-15T12:38:52;98831.97;;;13.40;58.85
63500;BME280;49654;51.142;14.924;2022-11-15T12:41:21;98834.59;;;13.67;59.12
63500;BME280;49654;51.142;14.924;2022-11-15T12:43:49;98825.69;;;14.01;57.13
63500;BME280;49654;51.142;14.924;2022-11-15T12:49:09;98838.16;;;13.92;57.58
63500;BME280;49654;51.142;14.924;2022-11-15T12:52:07;98828.34;;;13.74;57.85
63500;BME280;49654;51.142;14.924;2022-11-15T12:54:58;98813.47;;;14.46;56.49
63500;BME280;49654;51.142;14.924;2022-11-15T12:57:34;98825.88;;;14.64;55.62
63500;BME280;49654;51.142;14.924;2022-11-15T13:02:47;98795.72;;;17.32;49.40
63500;BME280;49654;51.142;14.924;2022-11-15T13:05:57;98798.75;;;18.23;46.55
63500;BME280;49654;51.142;14.924;2022-11-15T13:08:40;98802.25;;;18.00;46.43
63500;BME280;49654;51.142;14.924;2022-11-15T13:17:34;98787.84;;;17.67;46.46
63500;BME280;49654;51.142;14.924;2022-11-15T13:20:29;98780.13;;;18.53;44.97
63500;BME280;49654;51.142;14.924;2022-11-15T13:23:02;98783.69;;;18.18;45.26
63500;BME280;49654;51.142;14.924;2022-11-15T13:28:48;98769.66;;;19.15;42.92
63500;BME280;49654;51.142;14.924;2022-11-15T13:31:23;98740.28;;;19.40;42.17
63500;BME280;49654;51.142;14.924;2022-11-15T13:33:51;98752.53;;;19.68;41.54